Medea, Algeria
Current Conditions -  °F | °C
As of 10:30 PM on Monday 24 Nov 2014 (Local Time) from DAAG Reporting Station
Light Rain Light Rain  
Wind Chill: 63°   Ceiling: 10000
Heat Index: 63°   Visibility: 6mi
Dew Point: 55°   Wind: 5mph
Humidity: 77%   Direction: 60°ENE
Pressure: 30.09"   Gusts: NA
Location:  36.26°N, 2.75°E
Report Text: DAAG 242130Z 06004KT 030V090 9999 -RA FEW026 BKN100 17/13 Q1019
Loading
Personal Weather Stations






























Interactive Weather Map New forecast layout! Learn more

10-Day Weather Forecast

Advertisements
Track Severe Weather on mobile